sensor_id;sensor_type;location;lat;lon;timestamp;pressure;altitude;pressure_sealevel;temperature
17142;BMP180;32805;53.556;9.944;2022-08-25T00:01:38;101875.00;;;21.40
17142;BMP180;32805;53.556;9.944;2022-08-25T00:04:09;101874.00;;;21.40
17142;BMP180;32805;53.556;9.944;2022-08-25T00:06:40;101873.00;;;21.50
17142;BMP180;32805;53.556;9.944;2022-08-25T00:09:09;101878.00;;;21.50
17142;BMP180;32805;53.556;9.944;2022-08-25T00:11:40;101860.00;;;21.50
17142;BMP180;32805;53.556;9.944;2022-08-25T00:14:11;101876.00;;;21.50
17142;BMP180;32805;53.556;9.944;2022-08-25T00:16:39;101870.00;;;21.40
17142;BMP180;32805;53.556;9.944;2022-08-25T00:19:11;101865.00;;;21.40
17142;BMP180;32805;53.556;9.944;2022-08-25T00:21:39;101864.00;;;21.30
17142;BMP180;32805;53.556;9.944;2022-08-25T00:24:09;101855.00;;;21.20
17142;BMP180;32805;53.556;9.944;2022-08-25T00:26:40;101853.00;;;21.30
17142;BMP180;32805;53.556;9.944;2022-08-25T00:29:09;101855.00;;;21.20
17142;BMP180;32805;53.556;9.944;2022-08-25T00:31:38;101863.00;;;21.10
17142;BMP180;32805;53.556;9.944;2022-08-25T00:34:08;101861.00;;;21.10
17142;BMP180;32805;53.556;9.944;2022-08-25T00:36:37;101858.00;;;21.10
17142;BMP180;32805;53.556;9.944;2022-08-25T00:39:06;101862.00;;;21.10
17142;BMP180;32805;53.556;9.944;2022-08-25T00:41:36;101864.00;;;21.10
17142;BMP180;32805;53.556;9.944;2022-08-25T00:44:06;101869.00;;;21.10
17142;BMP180;32805;53.556;9.944;2022-08-25T00:46:37;101869.00;;;21.00
17142;BMP180;32805;53.556;9.944;2022-08-25T00:49:08;101860.00;;;20.90
17142;BMP180;32805;53.556;9.944;2022-08-25T00:51:52;101864.00;;;20.90
17142;BMP180;32805;53.556;9.944;2022-08-25T00:54:26;101863.00;;;20.90
17142;BMP180;32805;53.556;9.944;2022-08-25T00:56:55;101863.00;;;20.80
17142;BMP180;32805;53.556;9.944;2022-08-25T00:59:26;101864.00;;;20.70
17142;BMP180;32805;53.556;9.944;2022-08-25T01:01:55;101870.00;;;20.70
17142;BMP180;32805;53.556;9.944;2022-08-25T01:04:25;101857.00;;;20.70
17142;BMP180;32805;53.556;9.944;2022-08-25T01:06:53;101875.00;;;20.70
17142;BMP180;32805;53.556;9.944;2022-08-25T01:09:21;101865.00;;;20.60
17142;BMP180;32805;53.556;9.944;2022-08-25T01:11:49;101863.00;;;20.70
17142;BMP180;32805;53.556;9.944;2022-08-25T01:14:19;101876.00;;;20.70
17142;BMP180;32805;53.556;9.944;2022-08-25T01:16:49;101870.00;;;20.70
17142;BMP180;32805;53.556;9.944;2022-08-25T01:19:20;101865.00;;;20.60
17142;BMP180;32805;53.556;9.944;2022-08-25T01:21:51;101870.00;;;20.70
17142;BMP180;32805;53.556;9.944;2022-08-25T01:24:23;101865.00;;;20.50
17142;BMP180;32805;53.556;9.944;2022-08-25T01:26:51;101864.00;;;20.60
17142;BMP180;32805;53.556;9.944;2022-08-25T01:29:19;101874.00;;;20.50
17142;BMP180;32805;53.556;9.944;2022-08-25T01:31:54;101863.00;;;20.30
17142;BMP180;32805;53.556;9.944;2022-08-25T01:34:24;101870.00;;;20.40
17142;BMP180;32805;53.556;9.944;2022-08-25T01:36:56;101863.00;;;20.30
17142;BMP180;32805;53.556;9.944;2022-08-25T01:39:25;101863.00;;;20.30
17142;BMP180;32805;53.556;9.944;2022-08-25T01:42:06;101871.00;;;20.30
17142;BMP180;32805;53.556;9.944;2022-08-25T01:44:39;101863.00;;;20.20
17142;BMP180;32805;53.556;9.944;2022-08-25T01:47:07;101872.00;;;20.20
17142;BMP180;32805;53.556;9.944;2022-08-25T01:49:36;101877.00;;;20.20
17142;BMP180;32805;53.556;9.944;2022-08-25T01:52:10;101878.00;;;20.20
17142;BMP180;32805;53.556;9.944;2022-08-25T01:54:38;101878.00;;;20.30
17142;BMP180;32805;53.556;9.944;2022-08-25T01:57:06;101882.00;;;20.20
17142;BMP180;32805;53.556;9.944;2022-08-25T01:59:34;101876.00;;;20.20
17142;BMP180;32805;53.556;9.944;2022-08-25T02:02:02;101878.00;;;20.30
17142;BMP180;32805;53.556;9.944;2022-08-25T02:04:31;101876.00;;;20.30
17142;BMP180;32805;53.556;9.944;2022-08-25T02:07:00;101882.00;;;20.20
17142;BMP180;32805;53.556;9.944;2022-08-25T02:09:30;101881.00;;;20.10
17142;BMP180;32805;53.556;9.944;2022-08-25T02:11:58;101884.00;;;20.00
17142;BMP180;32805;53.556;9.944;2022-08-25T02:14:26;101890.00;;;20.00
17142;BMP180;32805;53.556;9.944;2022-08-25T02:16:55;101884.00;;;20.10
17142;BMP180;32805;53.556;9.944;2022-08-25T02:19:24;101883.00;;;20.10
17142;BMP180;32805;53.556;9.944;2022-08-25T02:21:51;101887.00;;;20.00
17142;BMP180;32805;53.556;9.944;2022-08-25T02:24:20;101889.00;;;20.00
17142;BMP180;32805;53.556;9.944;2022-08-25T02:26:49;101892.00;;;20.00
17142;BMP180;32805;53.556;9.944;2022-08-25T02:29:17;101883.00;;;20.00
17142;BMP180;32805;53.556;9.944;2022-08-25T02:31:44;101882.00;;;19.90
17142;BMP180;32805;53.556;9.944;2022-08-25T02:34:12;101877.00;;;19.90
17142;BMP180;32805;53.556;9.944;2022-08-25T02:36:42;101884.00;;;19.80
17142;BMP180;32805;53.556;9.944;2022-08-25T02:39:10;101886.00;;;19.80
17142;BMP180;32805;53.556;9.944;2022-08-25T02:41:38;101881.00;;;19.80
17142;BMP180;32805;53.556;9.944;2022-08-25T02:44:08;101872.00;;;19.80
17142;BMP180;32805;53.556;9.944;2022-08-25T02:46:36;101869.00;;;19.70
17142;BMP180;32805;53.556;9.944;2022-08-25T02:49:05;101877.00;;;19.70
17142;BMP180;32805;53.556;9.944;2022-08-25T02:51:34;101860.00;;;19.90
17142;BMP180;32805;53.556;9.944;2022-08-25T02:54:03;101865.00;;;19.80
17142;BMP180;32805;53.556;9.944;2022-08-25T02:56:31;101855.00;;;19.80
17142;BMP180;32805;53.556;9.944;2022-08-25T02:59:00;101858.00;;;19.80
17142;BMP180;32805;53.556;9.944;2022-08-25T03:01:30;101856.00;;;19.70
17142;BMP180;32805;53.556;9.944;2022-08-25T03:03:59;101857.00;;;19.70
17142;BMP180;32805;53.556;9.944;2022-08-25T03:06:28;101855.00;;;19.70
17142;BMP180;32805;53.556;9.944;2022-08-25T03:08:56;101858.00;;;19.70
17142;BMP180;32805;53.556;9.944;2022-08-25T03:11:24;101853.00;;;19.60
17142;BMP180;32805;53.556;9.944;2022-08-25T03:13:52;101870.00;;;19.70
17142;BMP180;32805;53.556;9.944;2022-08-25T03:16:22;101869.00;;;19.80
17142;BMP180;32805;53.556;9.944;2022-08-25T03:18:55;101862.00;;;19.80
17142;BMP180;32805;53.556;9.944;2022-08-25T03:21:25;101857.00;;;19.60
17142;BMP180;32805;53.556;9.944;2022-08-25T03:23:54;101865.00;;;19.50
17142;BMP180;32805;53.556;9.944;2022-08-25T03:26:22;101850.00;;;19.50
17142;BMP180;32805;53.556;9.944;2022-08-25T03:29:08;101859.00;;;19.60
17142;BMP180;32805;53.556;9.944;2022-08-25T03:31:36;101851.00;;;19.50
17142;BMP180;32805;53.556;9.944;2022-08-25T03:34:06;101851.00;;;19.50
17142;BMP180;32805;53.556;9.944;2022-08-25T03:36:34;101850.00;;;19.50
17142;BMP180;32805;53.556;9.944;2022-08-25T03:39:03;101848.00;;;19.50
17142;BMP180;32805;53.556;9.944;2022-08-25T03:41:31;101839.00;;;19.50
17142;BMP180;32805;53.556;9.944;2022-08-25T03:44:00;101850.00;;;19.50
17142;BMP180;32805;53.556;9.944;2022-08-25T03:46:30;101831.00;;;19.40
17142;BMP180;32805;53.556;9.944;2022-08-25T03:49:00;101834.00;;;19.40
17142;BMP180;32805;53.556;9.944;2022-08-25T03:51:32;101833.00;;;19.30
17142;BMP180;32805;53.556;9.944;2022-08-25T03:54:01;101833.00;;;19.30
17142;BMP180;32805;53.556;9.944;2022-08-25T03:56:29;101833.00;;;19.30
17142;BMP180;32805;53.556;9.944;2022-08-25T03:58:57;101838.00;;;19.30
17142;BMP180;32805;53.556;9.944;2022-08-25T04:01:25;101845.00;;;19.20
17142;BMP180;32805;53.556;9.944;2022-08-25T04:03:53;101850.00;;;19.10
17142;BMP180;32805;53.556;9.944;2022-08-25T04:06:21;101844.00;;;19.10
17142;BMP180;32805;53.556;9.944;2022-08-25T04:08:51;101843.00;;;19.00
17142;BMP180;32805;53.556;9.944;2022-08-25T04:11:21;101839.00;;;19.00
17142;BMP180;32805;53.556;9.944;2022-08-25T04:13:50;101845.00;;;19.00
17142;BMP180;32805;53.556;9.944;2022-08-25T04:16:20;101837.00;;;18.90
17142;BMP180;32805;53.556;9.944;2022-08-25T04:18:49;101847.00;;;18.90
17142;BMP180;32805;53.556;9.944;2022-08-25T04:21:18;101839.00;;;18.90
17142;BMP180;32805;53.556;9.944;2022-08-25T04:23:47;101845.00;;;18.90
17142;BMP180;32805;53.556;9.944;2022-08-25T04:26:19;101835.00;;;18.80
17142;BMP180;32805;53.556;9.944;2022-08-25T04:28:48;101841.00;;;18.80
17142;BMP180;32805;53.556;9.944;2022-08-25T04:31:17;101842.00;;;18.80
17142;BMP180;32805;53.556;9.944;2022-08-25T04:33:46;101842.00;;;18.80
17142;BMP180;32805;53.556;9.944;2022-08-25T04:36:16;101849.00;;;18.80
17142;BMP180;32805;53.556;9.944;2022-08-25T04:38:45;101855.00;;;18.80
17142;BMP180;32805;53.556;9.944;2022-08-25T04:41:15;101854.00;;;18.80
17142;BMP180;32805;53.556;9.944;2022-08-25T04:43:45;101853.00;;;18.80
17142;BMP180;32805;53.556;9.944;2022-08-25T04:46:14;101859.00;;;18.80
17142;BMP180;32805;53.556;9.944;2022-08-25T04:48:46;101859.00;;;18.90
17142;BMP180;32805;53.556;9.944;2022-08-25T04:51:17;101859.00;;;18.90
17142;BMP180;32805;53.556;9.944;2022-08-25T04:53:45;101856.00;;;18.90
17142;BMP180;32805;53.556;9.944;2022-08-25T04:56:15;101860.00;;;18.90
17142;BMP180;32805;53.556;9.944;2022-08-25T04:58:45;101870.00;;;18.90
17142;BMP180;32805;53.556;9.944;2022-08-25T05:01:15;101864.00;;;18.80
17142;BMP180;32805;53.556;9.944;2022-08-25T05:03:44;101855.00;;;18.90
17142;BMP180;32805;53.556;9.944;2022-08-25T05:06:13;101856.00;;;19.00
17142;BMP180;32805;53.556;9.944;2022-08-25T05:08:42;101853.00;;;19.00
17142;BMP180;32805;53.556;9.944;2022-08-25T05:11:13;101851.00;;;19.00
17142;BMP180;32805;53.556;9.944;2022-08-25T05:13:45;101839.00;;;19.00
17142;BMP180;32805;53.556;9.944;2022-08-25T05:16:18;101832.00;;;19.10
17142;BMP180;32805;53.556;9.944;2022-08-25T05:18:46;101832.00;;;19.10
17142;BMP180;32805;53.556;9.944;2022-08-25T05:21:16;101833.00;;;19.20
17142;BMP180;32805;53.556;9.944;2022-08-25T05:23:44;101836.00;;;19.30
17142;BMP180;32805;53.556;9.944;2022-08-25T05:26:15;101837.00;;;19.30
17142;BMP180;32805;53.556;9.944;2022-08-25T05:28:48;101824.00;;;19.30
17142;BMP180;32805;53.556;9.944;2022-08-25T05:31:17;101825.00;;;19.40
17142;BMP180;32805;53.556;9.944;2022-08-25T05:33:45;101829.00;;;19.40
17142;BMP180;32805;53.556;9.944;2022-08-25T05:36:14;101824.00;;;19.40
17142;BMP180;32805;53.556;9.944;2022-08-25T05:38:42;101823.00;;;19.50
17142;BMP180;32805;53.556;9.944;2022-08-25T05:41:13;101815.00;;;19.40
17142;BMP180;32805;53.556;9.944;2022-08-25T05:43:43;101820.00;;;19.50
17142;BMP180;32805;53.556;9.944;2022-08-25T05:46:13;101818.00;;;19.60
17142;BMP180;32805;53.556;9.944;2022-08-25T05:48:41;101824.00;;;19.70
17142;BMP180;32805;53.556;9.944;2022-08-25T05:51:10;101830.00;;;19.80
17142;BMP180;32805;53.556;9.944;2022-08-25T05:53:40;101833.00;;;19.90
17142;BMP180;32805;53.556;9.944;2022-08-25T05:56:08;101826.00;;;19.90
17142;BMP180;32805;53.556;9.944;2022-08-25T05:58:36;101818.00;;;19.90
17142;BMP180;32805;53.556;9.944;2022-08-25T06:01:04;101831.00;;;19.80
17142;BMP180;32805;53.556;9.944;2022-08-25T06:03:49;101826.00;;;19.90
17142;BMP180;32805;53.556;9.944;2022-08-25T06:06:19;101825.00;;;19.90
17142;BMP180;32805;53.556;9.944;2022-08-25T06:08:48;101826.00;;;19.90
17142;BMP180;32805;53.556;9.944;2022-08-25T06:11:15;101830.00;;;20.00
17142;BMP180;32805;53.556;9.944;2022-08-25T06:13:43;101820.00;;;20.00
17142;BMP180;32805;53.556;9.944;2022-08-25T06:16:11;101820.00;;;19.90
17142;BMP180;32805;53.556;9.944;2022-08-25T06:18:39;101819.00;;;20.10
17142;BMP180;32805;53.556;9.944;2022-08-25T06:21:10;101823.00;;;20.10
17142;BMP180;32805;53.556;9.944;2022-08-25T06:23:39;101811.00;;;20.00
17142;BMP180;32805;53.556;9.944;2022-08-25T06:26:10;101827.00;;;19.90
17142;BMP180;32805;53.556;9.944;2022-08-25T06:28:46;101825.00;;;20.10
17142;BMP180;32805;53.556;9.944;2022-08-25T06:31:14;101821.00;;;20.10
17142;BMP180;32805;53.556;9.944;2022-08-25T06:33:42;101825.00;;;20.30
17142;BMP180;32805;53.556;9.944;2022-08-25T06:36:11;101814.00;;;20.40
17142;BMP180;32805;53.556;9.944;2022-08-25T06:38:39;101819.00;;;20.70
17142;BMP180;32805;53.556;9.944;2022-08-25T06:41:07;101813.00;;;20.70
17142;BMP180;32805;53.556;9.944;2022-08-25T06:43:36;101806.00;;;20.60
17142;BMP180;32805;53.556;9.944;2022-08-25T06:46:12;101815.00;;;20.60
17142;BMP180;32805;53.556;9.944;2022-08-25T06:48:41;101812.00;;;20.70
17142;BMP180;32805;53.556;9.944;2022-08-25T06:51:12;101810.00;;;20.60
17142;BMP180;32805;53.556;9.944;2022-08-25T06:53:40;101814.00;;;20.60
17142;BMP180;32805;53.556;9.944;2022-08-25T06:56:09;101820.00;;;20.60
17142;BMP180;32805;53.556;9.944;2022-08-25T06:58:38;101819.00;;;20.50
17142;BMP180;32805;53.556;9.944;2022-08-25T07:01:07;101824.00;;;20.50
17142;BMP180;32805;53.556;9.944;2022-08-25T07:03:45;101837.00;;;20.40
17142;BMP180;32805;53.556;9.944;2022-08-25T07:06:15;101832.00;;;20.50
17142;BMP180;32805;53.556;9.944;2022-08-25T07:08:44;101840.00;;;20.50
17142;BMP180;32805;53.556;9.944;2022-08-25T07:11:13;101846.00;;;20.80
17142;BMP180;32805;53.556;9.944;2022-08-25T07:13:44;101844.00;;;20.70
17142;BMP180;32805;53.556;9.944;2022-08-25T07:16:12;101839.00;;;20.70
17142;BMP180;32805;53.556;9.944;2022-08-25T07:18:42;101838.00;;;20.70
17142;BMP180;32805;53.556;9.944;2022-08-25T07:21:10;101845.00;;;20.70
17142;BMP180;32805;53.556;9.944;2022-08-25T07:23:39;101836.00;;;20.90
17142;BMP180;32805;53.556;9.944;2022-08-25T07:26:09;101847.00;;;21.10
17142;BMP180;32805;53.556;9.944;2022-08-25T07:28:58;101835.00;;;21.20
17142;BMP180;32805;53.556;9.944;2022-08-25T07:31:26;101839.00;;;21.10
17142;BMP180;32805;53.556;9.944;2022-08-25T07:33:55;101823.00;;;21.10
17142;BMP180;32805;53.556;9.944;2022-08-25T07:36:42;101823.00;;;21.10
17142;BMP180;32805;53.556;9.944;2022-08-25T07:39:11;101824.00;;;21.10
17142;BMP180;32805;53.556;9.944;2022-08-25T07:41:40;101817.00;;;21.30
17142;BMP180;32805;53.556;9.944;2022-08-25T07:44:10;101825.00;;;21.40
17142;BMP180;32805;53.556;9.944;2022-08-25T07:46:39;101831.00;;;21.40
17142;BMP180;32805;53.556;9.944;2022-08-25T07:49:08;101836.00;;;21.20
17142;BMP180;32805;53.556;9.944;2022-08-25T07:51:43;101832.00;;;21.30
17142;BMP180;32805;53.556;9.944;2022-08-25T07:54:33;101817.00;;;21.30
17142;BMP180;32805;53.556;9.944;2022-08-25T07:57:05;101838.00;;;21.20
17142;BMP180;32805;53.556;9.944;2022-08-25T07:59:34;101835.00;;;21.00
17142;BMP180;32805;53.556;9.944;2022-08-25T08:02:07;101841.00;;;21.10
17142;BMP180;32805;53.556;9.944;2022-08-25T08:04:45;101832.00;;;21.10
17142;BMP180;32805;53.556;9.944;2022-08-25T08:07:16;101841.00;;;21.20
17142;BMP180;32805;53.556;9.944;2022-08-25T08:09:46;101824.00;;;21.50
17142;BMP180;32805;53.556;9.944;2022-08-25T08:12:26;101833.00;;;21.50
17142;BMP180;32805;53.556;9.944;2022-08-25T08:14:53;101827.00;;;21.50
17142;BMP180;32805;53.556;9.944;2022-08-25T08:17:21;101829.00;;;21.40
17142;BMP180;32805;53.556;9.944;2022-08-25T08:19:49;101822.00;;;21.50
17142;BMP180;32805;53.556;9.944;2022-08-25T08:22:19;101828.00;;;21.60
17142;BMP180;32805;53.556;9.944;2022-08-25T08:24:49;101830.00;;;21.70
17142;BMP180;32805;53.556;9.944;2022-08-25T08:27:22;101829.00;;;21.90
17142;BMP180;32805;53.556;9.944;2022-08-25T08:29:50;101835.00;;;21.70
17142;BMP180;32805;53.556;9.944;2022-08-25T08:32:19;101840.00;;;21.60
17142;BMP180;32805;53.556;9.944;2022-08-25T08:34:57;101831.00;;;21.60
17142;BMP180;32805;53.556;9.944;2022-08-25T08:37:25;101826.00;;;21.50
17142;BMP180;32805;53.556;9.944;2022-08-25T08:39:55;101823.00;;;21.50
17142;BMP180;32805;53.556;9.944;2022-08-25T08:42:37;101830.00;;;21.50
17142;BMP180;32805;53.556;9.944;2022-08-25T08:45:24;101836.00;;;21.50
17142;BMP180;32805;53.556;9.944;2022-08-25T08:48:05;101843.00;;;21.40
17142;BMP180;32805;53.556;9.944;2022-08-25T08:50:43;101845.00;;;21.50
17142;BMP180;32805;53.556;9.944;2022-08-25T08:53:21;101832.00;;;21.70
17142;BMP180;32805;53.556;9.944;2022-08-25T08:55:55;101823.00;;;21.90
17142;BMP180;32805;53.556;9.944;2022-08-25T08:58:27;101826.00;;;21.90
17142;BMP180;32805;53.556;9.944;2022-08-25T09:00:57;101820.00;;;22.00
17142;BMP180;32805;53.556;9.944;2022-08-25T09:03:32;101824.00;;;22.00
17142;BMP180;32805;53.556;9.944;2022-08-25T09:06:08;101821.00;;;21.90
17142;BMP180;32805;53.556;9.944;2022-08-25T09:08:37;101827.00;;;22.00
17142;BMP180;32805;53.556;9.944;2022-08-25T09:11:17;101812.00;;;22.30
17142;BMP180;32805;53.556;9.944;2022-08-25T09:14:13;101806.00;;;22.40
17142;BMP180;32805;53.556;9.944;2022-08-25T09:16:50;101808.00;;;22.70
17142;BMP180;32805;53.556;9.944;2022-08-25T09:19:32;101807.00;;;22.70
17142;BMP180;32805;53.556;9.944;2022-08-25T09:22:17;101803.00;;;22.90
17142;BMP180;32805;53.556;9.944;2022-08-25T09:25:07;101813.00;;;22.90
17142;BMP180;32805;53.556;9.944;2022-08-25T09:27:45;101814.00;;;23.10
17142;BMP180;32805;53.556;9.944;2022-08-25T09:30:18;101804.00;;;23.00
17142;BMP180;32805;53.556;9.944;2022-08-25T09:32:52;101809.00;;;23.10
17142;BMP180;32805;53.556;9.944;2022-08-25T09:35:29;101810.00;;;23.20
17142;BMP180;32805;53.556;9.944;2022-08-25T09:37:59;101801.00;;;23.40
17142;BMP180;32805;53.556;9.944;2022-08-25T09:40:29;101801.00;;;23.40
17142;BMP180;32805;53.556;9.944;2022-08-25T09:43:01;101808.00;;;22.90
17142;BMP180;32805;53.556;9.944;2022-08-25T09:45:37;101806.00;;;22.70
17142;BMP180;32805;53.556;9.944;2022-08-25T09:48:23;101804.00;;;22.60
17142;BMP180;32805;53.556;9.944;2022-08-25T09:50:58;101796.00;;;22.40
17142;BMP180;32805;53.556;9.944;2022-08-25T09:53:29;101785.00;;;22.20
17142;BMP180;32805;53.556;9.944;2022-08-25T09:56:02;101785.00;;;22.00
17142;BMP180;32805;53.556;9.944;2022-08-25T09:58:34;101782.00;;;22.00
17142;BMP180;32805;53.556;9.944;2022-08-25T10:01:12;101780.00;;;22.20
17142;BMP180;32805;53.556;9.944;2022-08-25T10:03:58;101772.00;;;22.10
17142;BMP180;32805;53.556;9.944;2022-08-25T10:06:30;101767.00;;;22.20
17142;BMP180;32805;53.556;9.944;2022-08-25T10:09:02;101756.00;;;22.30
17142;BMP180;32805;53.556;9.944;2022-08-25T10:11:35;101744.00;;;22.20
17142;BMP180;32805;53.556;9.944;2022-08-25T10:14:14;101755.00;;;22.10
17142;BMP180;32805;53.556;9.944;2022-08-25T10:16:43;101762.00;;;22.20
17142;BMP180;32805;53.556;9.944;2022-08-25T10:19:23;101746.00;;;22.40
17142;BMP180;32805;53.556;9.944;2022-08-25T10:22:06;101747.00;;;22.40
17142;BMP180;32805;53.556;9.944;2022-08-25T10:24:39;101755.00;;;22.60
17142;BMP180;32805;53.556;9.944;2022-08-25T10:27:21;101748.00;;;22.70
17142;BMP180;32805;53.556;9.944;2022-08-25T10:29:59;101753.00;;;22.90
17142;BMP180;32805;53.556;9.944;2022-08-25T10:32:39;101746.00;;;23.10
17142;BMP180;32805;53.556;9.944;2022-08-25T10:35:12;101749.00;;;23.30
17142;BMP180;32805;53.556;9.944;2022-08-25T10:37:50;101736.00;;;23.40
17142;BMP180;32805;53.556;9.944;2022-08-25T10:40:22;101727.00;;;23.40
17142;BMP180;32805;53.556;9.944;2022-08-25T10:43:00;101724.00;;;23.50
17142;BMP180;32805;53.556;9.944;2022-08-25T10:45:38;101715.00;;;23.60
17142;BMP180;32805;53.556;9.944;2022-08-25T10:48:37;101708.00;;;23.70
17142;BMP180;32805;53.556;9.944;2022-08-25T10:51:20;101704.00;;;23.80
17142;BMP180;32805;53.556;9.944;2022-08-25T10:53:55;101701.00;;;24.00
17142;BMP180;32805;53.556;9.944;2022-08-25T10:56:26;101698.00;;;24.10
17142;BMP180;32805;53.556;9.944;2022-08-25T10:59:25;101691.00;;;24.30
17142;BMP180;32805;53.556;9.944;2022-08-25T11:02:20;101685.00;;;24.40
17142;BMP180;32805;53.556;9.944;2022-08-25T11:04:54;101688.00;;;24.50
17142;BMP180;32805;53.556;9.944;2022-08-25T11:07:28;101678.00;;;24.50
17142;BMP180;32805;53.556;9.944;2022-08-25T11:10:02;101677.00;;;24.60
17142;BMP180;32805;53.556;9.944;2022-08-25T11:12:35;101672.00;;;24.50
17142;BMP180;32805;53.556;9.944;2022-08-25T11:15:08;101671.00;;;24.60
17142;BMP180;32805;53.556;9.944;2022-08-25T11:17:41;101667.00;;;24.80
17142;BMP180;32805;53.556;9.944;2022-08-25T11:20:18;101667.00;;;25.00
17142;BMP180;32805;53.556;9.944;2022-08-25T11:23:09;101654.00;;;25.10
17142;BMP180;32805;53.556;9.944;2022-08-25T11:25:42;101656.00;;;25.20
17142;BMP180;32805;53.556;9.944;2022-08-25T11:28:12;101643.00;;;25.30
17142;BMP180;32805;53.556;9.944;2022-08-25T11:30:41;101642.00;;;25.50
17142;BMP180;32805;53.556;9.944;2022-08-25T11:33:16;101649.00;;;25.70
17142;BMP180;32805;53.556;9.944;2022-08-25T11:35:48;101631.00;;;25.80
17142;BMP180;32805;53.556;9.944;2022-08-25T11:38:27;101638.00;;;25.90
17142;BMP180;32805;53.556;9.944;2022-08-25T11:41:09;101644.00;;;26.10
17142;BMP180;32805;53.556;9.944;2022-08-25T11:44:03;101638.00;;;26.30
17142;BMP180;32805;53.556;9.944;2022-08-25T11:46:44;101629.00;;;26.60
17142;BMP180;32805;53.556;9.944;2022-08-25T11:49:34;101623.00;;;26.90
17142;BMP180;32805;53.556;9.944;2022-08-25T11:52:40;101618.00;;;27.00
17142;BMP180;32805;53.556;9.944;2022-08-25T11:55:10;101620.00;;;27.20
17142;BMP180;32805;53.556;9.944;2022-08-25T11:57:41;101613.00;;;27.20
17142;BMP180;32805;53.556;9.944;2022-08-25T12:00:11;101608.00;;;27.20
17142;BMP180;32805;53.556;9.944;2022-08-25T12:02:42;101604.00;;;27.20
17142;BMP180;32805;53.556;9.944;2022-08-25T12:05:51;101598.00;;;27.20
17142;BMP180;32805;53.556;9.944;2022-08-25T12:08:54;101604.00;;;27.60
17142;BMP180;32805;53.556;9.944;2022-08-25T12:11:44;101600.00;;;27.70
17142;BMP180;32805;53.556;9.944;2022-08-25T12:14:16;101605.00;;;27.70
17142;BMP180;32805;53.556;9.944;2022-08-25T12:17:03;101589.00;;;27.80
17142;BMP180;32805;53.556;9.944;2022-08-25T12:19:49;101592.00;;;27.70
17142;BMP180;32805;53.556;9.944;2022-08-25T12:22:39;101579.00;;;27.70
17142;BMP180;32805;53.556;9.944;2022-08-25T12:25:16;101588.00;;;27.70
17142;BMP180;32805;53.556;9.944;2022-08-25T12:27:54;101592.00;;;27.50
17142;BMP180;32805;53.556;9.944;2022-08-25T12:30:28;101589.00;;;27.40
17142;BMP180;32805;53.556;9.944;2022-08-25T12:33:06;101589.00;;;27.20
17142;BMP180;32805;53.556;9.944;2022-08-25T12:35:51;101578.00;;;27.10
17142;BMP180;32805;53.556;9.944;2022-08-25T12:38:28;101579.00;;;27.10
17142;BMP180;32805;53.556;9.944;2022-08-25T12:41:01;101580.00;;;27.20
17142;BMP180;32805;53.556;9.944;2022-08-25T12:43:33;101574.00;;;27.20
17142;BMP180;32805;53.556;9.944;2022-08-25T12:46:32;101571.00;;;27.20
17142;BMP180;32805;53.556;9.944;2022-08-25T12:49:09;101561.00;;;27.30
17142;BMP180;32805;53.556;9.944;2022-08-25T12:51:54;101562.00;;;27.20
17142;BMP180;32805;53.556;9.944;2022-08-25T12:54:37;101550.00;;;27.30
17142;BMP180;32805;53.556;9.944;2022-08-25T12:57:31;101561.00;;;27.20
17142;BMP180;32805;53.556;9.944;2022-08-25T13:00:13;101552.00;;;27.30
17142;BMP180;32805;53.556;9.944;2022-08-25T13:03:07;101547.00;;;27.40
17142;BMP180;32805;53.556;9.944;2022-08-25T13:05:57;101555.00;;;27.30
17142;BMP180;32805;53.556;9.944;2022-08-25T13:08:54;101552.00;;;27.50
17142;BMP180;32805;53.556;9.944;2022-08-25T13:11:30;101541.00;;;27.40
17142;BMP180;32805;53.556;9.944;2022-08-25T13:14:05;101538.00;;;27.40
17142;BMP180;32805;53.556;9.944;2022-08-25T13:16:35;101544.00;;;27.30
17142;BMP180;32805;53.556;9.944;2022-08-25T13:19:05;101527.00;;;27.40
17142;BMP180;32805;53.556;9.944;2022-08-25T13:21:36;101527.00;;;27.20
17142;BMP180;32805;53.556;9.944;2022-08-25T13:24:08;101529.00;;;27.20
17142;BMP180;32805;53.556;9.944;2022-08-25T13:26:40;101519.00;;;27.30
17142;BMP180;32805;53.556;9.944;2022-08-25T13:29:19;101515.00;;;27.40
17142;BMP180;32805;53.556;9.944;2022-08-25T13:31:54;101508.00;;;27.50
17142;BMP180;32805;53.556;9.944;2022-08-25T13:34:27;101517.00;;;27.70
17142;BMP180;32805;53.556;9.944;2022-08-25T13:37:07;101504.00;;;27.90
17142;BMP180;32805;53.556;9.944;2022-08-25T13:40:08;101508.00;;;28.10
17142;BMP180;32805;53.556;9.944;2022-08-25T13:42:37;101502.00;;;28.10
17142;BMP180;32805;53.556;9.944;2022-08-25T13:45:14;101493.00;;;28.30
17142;BMP180;32805;53.556;9.944;2022-08-25T13:47:43;101497.00;;;28.30
17142;BMP180;32805;53.556;9.944;2022-08-25T13:50:19;101503.00;;;28.40
17142;BMP180;32805;53.556;9.944;2022-08-25T13:52:51;101491.00;;;28.40
17142;BMP180;32805;53.556;9.944;2022-08-25T13:55:23;101499.00;;;28.20
17142;BMP180;32805;53.556;9.944;2022-08-25T13:57:56;101495.00;;;28.30
17142;BMP180;32805;53.556;9.944;2022-08-25T14:00:30;101490.00;;;28.50
17142;BMP180;32805;53.556;9.944;2022-08-25T14:03:00;101495.00;;;28.50
17142;BMP180;32805;53.556;9.944;2022-08-25T14:05:40;101494.00;;;28.50
17142;BMP180;32805;53.556;9.944;2022-08-25T14:08:28;101485.00;;;28.40
17142;BMP180;32805;53.556;9.944;2022-08-25T14:11:06;101489.00;;;28.50
17142;BMP180;32805;53.556;9.944;2022-08-25T14:13:42;101485.00;;;28.60
17142;BMP180;32805;53.556;9.944;2022-08-25T14:16:13;101477.00;;;28.50
17142;BMP180;32805;53.556;9.944;2022-08-25T14:18:47;101482.00;;;28.60
17142;BMP180;32805;53.556;9.944;2022-08-25T14:21:18;101479.00;;;28.70
17142;BMP180;32805;53.556;9.944;2022-08-25T14:23:47;101480.00;;;28.60
17142;BMP180;32805;53.556;9.944;2022-08-25T14:26:15;101470.00;;;28.60
17142;BMP180;32805;53.556;9.944;2022-08-25T14:28:46;101470.00;;;28.70
17142;BMP180;32805;53.556;9.944;2022-08-25T14:31:25;101471.00;;;28.70